Time;durP1;ratioP1;P1;durP2;ratioP2;P2;SDS_P1;SDS_P2;PMS_P1;PMS_P2;Temp;Humidity;BMP_temperature;BMP_pressure;BME280_temperature;BME280_humidity;BME280_pressure;Samples;Min_cycle;Max_cycle;Signal;HPM_P1;HPM_P2
2022/06/02 00:02:12;;;;;;;2.58;2.00;;;15.10;93.70;;;;;;4879983;29;20654;-87
2022/06/02 00:05:36;;;;;;;2.08;1.83;;;15.00;93.60;;;;;;4881354;29;20232;-86
2022/06/02 00:43:46;;;;;;;2.20;2.00;;;14.50;95.00;;;;;;4834356;29;20209;-86
2022/06/02 00:46:59;;;;;;;2.15;1.95;;;14.50;95.00;;;;;;4863509;29;20227;-87
2022/06/02 03:43:14;;;;;;;2.53;2.33;;;13.80;98.90;;;;;;4858564;29;20338;-86
2022/06/02 05:58:44;;;;;;;4.63;2.45;;;18.10;69.80;;;;;;4971288;29;20217;-87
2022/06/02 06:04:48;;;;;;;2.90;2.60;;;18.10;72.40;;;;;;4964190;28;20196;-86
2022/06/02 06:14:29;;;;;;;3.10;2.70;;;17.70;76.30;;;;;;4970132;29;20533;-85
2022/06/02 06:30:36;;;;;;;4.68;3.40;;;17.60;77.20;;;;;;4950257;29;20173;-85
2022/06/02 06:40:26;;;;;;;3.58;3.25;;;17.70;75.50;;;;;;4988101;28;20716;-86
2022/06/02 06:43:05;;;;;;;4.05;3.45;;;17.80;77.10;;;;;;4966461;29;20260;-86
2022/06/02 06:52:36;;;;;;;4.28;3.67;;;18.40;67.80;;;;;;4945684;29;20280;-87
2022/06/02 06:55:21;;;;;;;7.60;3.63;;;18.70;65.90;;;;;;4947727;29;20211;-87
2022/06/02 06:58:04;;;;;;;4.55;3.45;;;18.80;64.60;;;;;;4938025;29;20210;-87
2022/06/02 07:01:00;;;;;;;3.70;3.22;;;18.60;66.10;;;;;;4954887;29;20961;-87
2022/06/02 07:03:52;;;;;;;4.65;3.47;;;18.70;68.70;;;;;;4943765;29;20253;-87
2022/06/02 07:09:53;;;;;;;4.30;3.28;;;18.60;66.40;;;;;;4943987;29;20193;-88
2022/06/02 07:15:51;;;;;;;4.05;3.40;;;18.90;65.30;;;;;;4947721;29;20209;-86
2022/06/02 07:22:43;;;;;;;6.55;3.85;;;19.20;58.70;;;;;;4858782;29;20829;-87
2022/06/02 07:25:36;;;;;;;4.05;3.00;;;19.00;59.00;;;;;;4861611;29;20296;-86
2022/06/02 07:28:09;;;;;;;5.25;3.20;;;19.30;60.20;;;;;;4858134;29;20235;-92
2022/06/02 07:31:19;;;;;;;5.30;3.70;;;19.60;59.60;;;;;;4871437;29;20601;-87
2022/06/02 07:37:35;;;;;;;6.05;3.90;;;18.30;62.60;;;;;;4875052;29;20402;-87
2022/06/02 07:40:39;;;;;;;4.47;3.53;;;18.20;64.30;;;;;;4864251;29;20715;-87
2022/06/02 07:43:51;;;;;;;6.00;3.60;;;18.40;61.70;;;;;;4869710;29;20217;-87
2022/06/02 07:49:54;;;;;;;4.53;3.65;;;18.60;62.90;;;;;;4952892;29;20196;-86
2022/06/02 07:52:56;;;;;;;4.55;3.45;;;19.00;60.40;;;;;;4936280;29;20276;-92
2022/06/02 07:55:33;;;;;;;6.07;3.63;;;19.40;57.60;;;;;;4939685;29;20292;-87
2022/06/02 07:58:30;;;;;;;6.88;3.70;;;19.40;55.60;;;;;;4936354;29;20216;-87
2022/06/02 08:01:11;;;;;;;6.20;3.70;;;20.00;55.90;;;;;;4954292;29;20244;-86
2022/06/02 08:04:19;;;;;;;4.03;3.40;;;20.30;50.50;;;;;;4930986;29;20234;-88
2022/06/02 08:06:51;;;;;;;9.85;3.53;;;21.00;45.00;;;;;;4949998;29;20205;-87
2022/06/02 08:09:35;;;;;;;4.65;3.10;;;21.70;42.00;;;;;;4934363;29;20240;-89
2022/06/02 08:12:35;;;;;;;4.28;2.95;;;21.80;40.10;;;;;;4938300;29;20202;-85
2022/06/02 08:15:20;;;;;;;4.63;3.60;;;21.90;37.70;;;;;;4946512;29;20229;-86
2022/06/02 08:18:05;;;;;;;5.10;3.58;;;21.90;38.20;;;;;;4935562;29;20209;-84
2022/06/02 08:20:55;;;;;;;6.35;3.80;;;22.40;37.60;;;;;;4937892;29;20198;-81
2022/06/02 08:24:00;;;;;;;7.35;4.40;;;24.90;31.10;;;;;;4938094;29;20244;-79
2022/06/02 08:26:35;;;;;;;3.85;3.40;;;27.40;22.20;;;;;;4940897;29;20205;-79
2022/06/02 08:29:14;;;;;;;8.55;4.03;;;28.20;18.00;;;;;;4934719;29;20217;-79
2022/06/02 08:32:11;;;;;;;3.90;3.50;;;28.40;17.20;;;;;;4932193;29;20204;-81
2022/06/02 08:35:19;;;;;;;6.85;3.50;;;27.50;18.90;;;;;;4878718;29;20218;-80
2022/06/02 08:38:19;;;;;;;4.00;3.40;;;27.70;18.60;;;;;;4880163;29;20205;-78
2022/06/02 08:41:32;;;;;;;3.33;3.03;;;26.70;18.30;;;;;;4882073;29;20248;-79
2022/06/02 08:48:08;;;;;;;5.63;3.70;;;25.70;20.80;;;;;;4890110;29;20283;-81
2022/06/02 08:51:02;;;;;;;6.43;3.88;;;25.40;24.60;;;;;;4884623;29;20199;-79
2022/06/02 08:54:11;;;;;;;4.80;3.67;;;25.30;24.40;;;;;;4880568;29;20207;-81
2022/06/02 08:57:00;;;;;;;4.78;3.20;;;25.20;24.50;;;;;;4879693;29;20203;-79
2022/06/02 09:00:12;;;;;;;4.20;2.90;;;25.40;23.30;;;;;;4884421;29;20218;-79
2022/06/02 09:03:26;;;;;;;4.40;3.58;;;25.10;24.90;;;;;;4875042;29;20207;-82
2022/06/02 09:06:25;;;;;;;4.32;3.20;;;24.30;26.60;;;;;;4871984;29;20231;-79
2022/06/02 09:09:43;;;;;;;7.93;3.63;;;25.20;26.80;;;;;;4877456;29;20289;-78
2022/06/02 09:12:53;;;;;;;4.85;3.72;;;25.40;24.70;;;;;;4884667;29;20690;-78
2022/06/02 09:16:13;;;;;;;4.07;3.20;;;25.30;23.80;;;;;;4833445;29;20207;-78
2022/06/02 09:19:29;;;;;;;5.38;3.92;;;25.70;23.70;;;;;;4836932;29;20212;-79
2022/06/02 09:22:19;;;;;;;4.55;4.05;;;27.20;20.20;;;;;;4782638;29;20218;-80
2022/06/02 09:25:31;;;;;;;4.38;3.97;;;27.40;19.40;;;;;;4736946;30;20220;-81
2022/06/02 09:31:51;;;;;;;3.80;3.50;;;27.50;18.50;;;;;;4732442;30;20238;-79
2022/06/02 09:34:41;;;;;;;6.60;3.25;;;26.10;22.80;;;;;;4730252;30;20217;-80
2022/06/02 09:37:51;;;;;;;5.28;3.50;;;25.40;23.40;;;;;;4731067;30;20258;-82
2022/06/02 09:40:44;;;;;;;4.50;3.40;;;25.20;25.80;;;;;;4730608;30;20666;-80
2022/06/02 09:43:42;;;;;;;7.47;4.13;;;24.90;24.80;;;;;;4726795;30;20225;-80
2022/06/02 09:46:48;;;;;;;5.22;3.83;;;24.40;26.40;;;;;;4727957;30;20217;-81
2022/06/02 09:49:52;;;;;;;6.28;3.67;;;23.70;27.70;;;;;;4781412;29;20287;-83
2022/06/02 09:52:53;;;;;;;4.53;3.90;;;23.30;28.50;;;;;;4786184;29;20230;-85
2022/06/02 09:55:37;;;;;;;3.40;3.00;;;22.80;30.40;;;;;;4791117;29;20211;-84
2022/06/02 09:58:44;;;;;;;4.30;3.65;;;22.70;31.90;;;;;;4831836;29;20674;-84
2022/06/02 10:01:37;;;;;;;4.53;4.07;;;23.00;31.30;;;;;;4827739;29;20274;-84
2022/06/02 10:04:47;;;;;;;7.10;4.38;;;23.30;30.80;;;;;;4924544;29;20203;-83
2022/06/02 10:07:33;;;;;;;5.85;3.90;;;23.70;30.90;;;;;;4837936;29;20209;-80
2022/06/02 10:10:22;;;;;;;4.28;3.80;;;24.50;27.50;;;;;;4798897;29;20236;-82
2022/06/02 10:13:23;;;;;;;5.45;3.22;;;24.60;25.60;;;;;;4803492;29;20198;-80
2022/06/02 10:16:06;;;;;;;3.63;3.30;;;24.70;26.30;;;;;;4803667;29;20205;-79
2022/06/02 10:19:12;;;;;;;6.03;3.33;;;26.10;27.10;;;;;;4801663;29;20210;-80
2022/06/02 10:22:17;;;;;;;5.30;4.80;;;28.40;22.80;;;;;;4803699;29;20714;-81
2022/06/02 10:25:31;;;;;;;5.70;4.95;;;29.20;17.50;;;;;;4800500;29;20313;-79
2022/06/02 10:28:34;;;;;;;8.27;5.72;;;29.90;16.60;;;;;;4801094;29;20210;-83
2022/06/02 10:31:44;;;;;;;6.55;5.57;;;29.80;16.50;;;;;;4838751;29;20617;-80
2022/06/02 10:34:49;;;;;;;9.60;6.03;;;30.50;15.70;;;;;;4846076;29;20221;-83
2022/06/02 10:37:56;;;;;;;6.55;5.55;;;30.20;16.10;;;;;;4843080;29;20208;-81
2022/06/02 10:40:52;;;;;;;7.90;5.60;;;30.10;16.70;;;;;;4849035;29;20206;-82
2022/06/02 10:44:10;;;;;;;7.25;5.57;;;28.60;17.80;;;;;;4909920;29;20322;-81
2022/06/02 10:47:25;;;;;;;6.53;5.10;;;29.00;16.10;;;;;;4923494;29;20206;-81
2022/06/02 10:50:17;;;;;;;4.47;4.15;;;28.80;16.10;;;;;;4928894;29;20248;-81
2022/06/02 10:53:37;;;;;;;5.47;4.90;;;28.00;18.90;;;;;;4936271;29;20224;-82
2022/06/02 10:56:36;;;;;;;5.25;4.70;;;26.30;19.70;;;;;;4940493;29;20201;-80
2022/06/02 10:59:33;;;;;;;5.32;4.82;;;25.60;24.10;;;;;;4934383;29;20737;-80
2022/06/02 11:02:49;;;;;;;6.25;5.57;;;25.00;23.40;;;;;;4934240;29;20203;-82
2022/06/02 11:05:55;;;;;;;8.77;5.30;;;24.40;23.90;;;;;;4874553;29;20204;-83
2022/06/02 11:12:13;;;;;;;5.40;4.90;;;24.10;26.20;;;;;;5002014;28;1260570;-83
2022/06/02 11:15:11;;;;;;;6.38;4.88;;;24.10;25.80;;;;;;4984668;28;20204;-82
2022/06/02 11:18:26;;;;;;;5.55;4.78;;;24.20;24.80;;;;;;4963377;28;20232;-84
2022/06/02 11:21:18;;;;;;;5.53;4.53;;;24.60;25.90;;;;;;4960335;28;20208;-83
2022/06/02 11:24:22;;;;;;;5.25;4.72;;;25.10;24.50;;;;;;4962200;28;20200;-83
2022/06/02 11:27:37;;;;;;;5.93;4.60;;;25.60;24.80;;;;;;4969343;28;20200;-83
2022/06/02 11:30:34;;;;;;;5.25;4.07;;;25.80;21.70;;;;;;4853043;29;20227;-85
2022/06/02 11:33:35;;;;;;;9.57;4.88;;;25.90;22.20;;;;;;4851596;29;20211;-84
2022/06/02 11:36:50;;;;;;;9.50;4.70;;;25.80;23.30;;;;;;4847428;29;20243;-85
2022/06/02 11:39:53;;;;;;;4.70;4.00;;;25.40;23.00;;;;;;4836984;29;20252;-84
2022/06/02 11:43:04;;;;;;;7.78;4.50;;;25.20;23.10;;;;;;4855283;29;20766;-84
2022/06/02 11:46:00;;;;;;;4.00;3.70;;;25.00;23.40;;;;;;4841586;29;20215;-84
2022/06/02 11:49:12;;;;;;;5.45;3.50;;;24.90;24.00;;;;;;4846037;29;20201;-84
2022/06/02 11:52:06;;;;;;;3.85;3.42;;;25.10;25.10;;;;;;4886958;29;20222;-89
2022/06/02 11:54:56;;;;;;;4.25;3.60;;;24.50;24.10;;;;;;4911758;29;20203;-87
2022/06/02 11:57:50;;;;;;;6.45;3.83;;;24.20;26.20;;;;;;4912212;29;21284;-87
2022/06/02 12:04:02;;;;;;;4.00;3.60;;;24.50;27.40;;;;;;4908454;29;20291;-89
2022/06/02 12:07:17;;;;;;;4.57;4.00;;;25.20;24.50;;;;;;4971755;28;20203;-83
2022/06/02 12:10:08;;;;;;;5.35;4.63;;;25.30;23.10;;;;;;4943986;28;20309;-86
2022/06/02 12:13:08;;;;;;;5.40;4.68;;;24.70;24.20;;;;;;4975051;28;20209;-83
2022/06/02 12:16:18;;;;;;;5.22;4.00;;;24.00;25.40;;;;;;4974893;28;20244;-83
2022/06/02 12:26:12;;;;;;;4.72;3.00;;;22.90;29.10;;;;;;4937183;29;20696;-85
2022/06/02 12:28:48;;;;;;;3.17;2.88;;;23.00;29.00;;;;;;4943551;29;20201;-85
2022/06/02 12:35:16;;;;;;;3.88;3.25;;;23.10;29.10;;;;;;4968587;28;20196;-85
2022/06/02 12:38:16;;;;;;;6.07;3.47;;;23.40;29.70;;;;;;4963947;28;20194;-87
2022/06/02 12:41:03;;;;;;;3.85;2.85;;;23.60;27.30;;;;;;4963316;28;20651;-85
2022/06/02 12:44:06;;;;;;;4.30;3.22;;;23.50;26.80;;;;;;4978056;28;20215;-85
2022/06/02 12:47:23;;;;;;;3.03;2.72;;;23.40;27.20;;;;;;4997378;28;20209;-84
2022/06/02 12:50:20;;;;;;;3.50;2.85;;;23.00;28.50;;;;;;4952014;29;20277;-88
2022/06/02 12:53:49;;;;;;;5.13;2.63;;;22.80;31.10;;;;;;4955616;29;20205;-84
2022/06/02 13:03:34;;;;;;;3.10;2.80;;;21.80;33.50;;;;;;4958855;29;20192;-88
2022/06/02 13:06:37;;;;;;;5.32;3.00;;;21.60;36.70;;;;;;4912635;29;20194;-89
2022/06/02 13:09:31;;;;;;;4.18;3.38;;;21.70;37.00;;;;;;4853703;29;20212;-87
2022/06/02 13:12:46;;;;;;;4.05;3.50;;;22.00;41.90;;;;;;4831439;29;20228;-87
2022/06/02 13:16:06;;;;;;;3.30;3.00;;;22.20;42.20;;;;;;4828015;29;20198;-87
2022/06/02 13:18:57;;;;;;;4.00;3.28;;;23.00;34.60;;;;;;4769329;30;20275;-87
2022/06/02 13:22:10;;;;;;;4.60;2.92;;;23.30;31.60;;;;;;4773073;30;20218;-88
2022/06/02 13:25:16;;;;;;;4.93;2.90;;;23.40;32.00;;;;;;4748589;30;20204;-92
2022/06/02 13:28:13;;;;;;;5.60;3.25;;;23.00;34.60;;;;;;4769860;30;20640;-89
2022/06/02 13:31:13;;;;;;;9.10;3.40;;;23.00;33.00;;;;;;4764252;30;20310;-90
2022/06/02 13:34:19;;;;;;;7.40;3.10;;;23.20;33.40;;;;;;4772198;30;20697;-90
2022/06/02 13:37:18;;;;;;;4.25;2.80;;;23.20;32.90;;;;;;4752088;30;20662;-89
2022/06/02 13:43:40;;;;;;;5.25;2.83;;;23.90;27.50;;;;;;4762236;30;20677;-87
2022/06/02 13:46:43;;;;;;;4.18;3.00;;;24.10;27.70;;;;;;4793775;29;20215;-89
2022/06/02 13:49:46;;;;;;;6.50;2.63;;;24.00;28.20;;;;;;4844097;29;20309;-87
2022/06/02 13:52:58;;;;;;;5.15;3.00;;;23.80;29.50;;;;;;4875154;29;20316;-87
2022/06/02 13:59:33;;;;;;;2.70;2.47;;;23.40;29.10;;;;;;4815866;29;20224;-86
2022/06/02 14:02:26;;;;;;;3.08;2.78;;;23.30;30.80;;;;;;4819180;29;20206;-88
2022/06/02 14:05:28;;;;;;;3.88;2.70;;;23.10;32.60;;;;;;4753136;30;20205;-88
2022/06/02 14:08:34;;;;;;;6.30;2.85;;;23.30;30.60;;;;;;4757163;30;20216;-89
2022/06/02 14:11:15;;;;;;;3.40;2.53;;;23.50;28.50;;;;;;4779859;30;20262;-88
2022/06/02 14:14:01;;;;;;;5.75;2.75;;;23.50;29.20;;;;;;4787891;30;20211;-87
2022/06/02 14:16:46;;;;;;;5.13;3.03;;;23.30;30.30;;;;;;4768796;30;20219;-88
2022/06/02 14:19:32;;;;;;;4.40;2.47;;;23.40;30.00;;;;;;4786357;29;20214;-88
2022/06/02 14:22:18;;;;;;;4.82;2.80;;;23.40;30.30;;;;;;4817881;29;20210;-87
2022/06/02 14:25:06;;;;;;;3.00;2.70;;;23.40;29.70;;;;;;4815776;29;20211;-88
2022/06/02 14:27:45;;;;;;;3.15;2.63;;;23.70;29.30;;;;;;4869012;29;20265;-87
2022/06/02 14:30:54;;;;;;;5.45;2.28;;;23.90;29.20;;;;;;4870525;29;20330;-86
2022/06/02 14:33:46;;;;;;;5.45;2.80;;;23.80;28.40;;;;;;4865599;29;20224;-86
2022/06/02 14:36:35;;;;;;;2.65;2.38;;;23.40;29.50;;;;;;4895650;29;20330;-88
2022/06/02 14:39:27;;;;;;;4.05;2.45;;;22.90;30.90;;;;;;4904867;29;20209;-88
2022/06/02 14:43:03;;;;;;;3.33;2.60;;;23.10;30.20;;;;;;4940101;28;20216;-89
2022/06/02 14:45:34;;;;;;;3.17;2.70;;;22.90;30.20;;;;;;4966984;28;20209;-88
2022/06/02 14:48:43;;;;;;;3.15;2.50;;;22.60;32.80;;;;;;4954425;28;20204;-89
2022/06/02 14:51:15;;;;;;;4.03;2.75;;;22.50;31.80;;;;;;4967575;28;20313;-89
2022/06/02 14:54:13;;;;;;;4.68;2.65;;;22.40;32.50;;;;;;4970222;28;20232;-88
2022/06/02 14:57:00;;;;;;;5.15;2.70;;;22.30;33.80;;;;;;4967458;28;20197;-91
2022/06/02 14:59:55;;;;;;;3.95;2.50;;;22.10;33.80;;;;;;4973517;28;20197;-89
2022/06/02 15:03:00;;;;;;;4.93;2.60;;;22.20;33.90;;;;;;4977146;28;20205;-91
2022/06/02 15:05:55;;;;;;;2.75;2.47;;;22.20;33.90;;;;;;4975422;28;20214;-89
2022/06/02 15:09:02;;;;;;;3.38;2.50;;;22.20;33.00;;;;;;4960632;28;20212;-90
2022/06/02 15:11:59;;;;;;;4.10;2.28;;;22.40;32.90;;;;;;4971212;28;20228;-89
2022/06/02 15:15:07;;;;;;;4.90;2.65;;;22.60;32.50;;;;;;4968020;28;20244;-90
2022/06/02 15:18:04;;;;;;;5.38;2.60;;;22.70;31.50;;;;;;4968623;28;20290;-89
2022/06/02 15:20:58;;;;;;;5.22;2.40;;;23.00;30.30;;;;;;4968082;28;20201;-90
2022/06/02 15:24:00;;;;;;;2.90;2.60;;;23.30;29.30;;;;;;5022304;28;20218;-89
2022/06/02 15:26:53;;;;;;;2.65;2.20;;;23.00;29.80;;;;;;5033709;28;20202;-87
2022/06/02 15:29:51;;;;;;;3.47;2.47;;;23.10;29.70;;;;;;5034319;28;20203;-91
2022/06/02 15:32:48;;;;;;;2.67;2.40;;;22.80;31.80;;;;;;5028124;28;20221;-90
2022/06/02 15:35:46;;;;;;;4.55;2.42;;;22.70;31.30;;;;;;4963163;28;20202;-91
2022/06/02 15:38:54;;;;;;;2.78;2.40;;;22.60;31.30;;;;;;4955679;28;20204;-89
2022/06/02 15:42:03;;;;;;;4.25;2.45;;;22.40;31.90;;;;;;4958784;29;20634;-90
2022/06/02 15:45:22;;;;;;;3.60;2.55;;;22.20;32.60;;;;;;4953311;29;20201;-90
2022/06/02 15:48:35;;;;;;;2.63;2.20;;;22.10;33.80;;;;;;4944941;29;20264;-88
2022/06/02 15:51:52;;;;;;;4.97;2.90;;;22.20;33.90;;;;;;4950189;29;20764;-90
2022/06/02 15:55:07;;;;;;;4.40;2.63;;;22.20;33.90;;;;;;4954907;29;20209;-90
2022/06/02 15:58:03;;;;;;;2.75;2.55;;;22.20;33.90;;;;;;4918100;29;20199;-89
2022/06/02 16:01:13;;;;;;;3.22;2.50;;;22.30;32.60;;;;;;4909525;29;20203;-89
2022/06/02 16:04:32;;;;;;;4.28;2.42;;;22.50;31.30;;;;;;4854454;29;20213;-89
2022/06/02 16:07:32;;;;;;;2.50;2.30;;;22.60;31.40;;;;;;4847278;29;20240;-90
2022/06/02 16:14:09;;;;;;;4.15;2.55;;;22.20;33.90;;;;;;4860189;29;20216;-89
2022/06/02 16:17:13;;;;;;;3.10;2.40;;;22.20;33.90;;;;;;4867815;29;20254;-90
2022/06/02 16:23:53;;;;;;;3.72;2.50;;;22.30;34.00;;;;;;4921752;29;20239;-90
2022/06/02 16:29:59;;;;;;;4.78;3.30;;;22.20;33.90;;;;;;4917889;29;20205;-89
2022/06/02 16:36:07;;;;;;;4.07;3.05;;;22.10;33.80;;;;;;4961351;28;20249;-89
2022/06/02 16:38:51;;;;;;;3.35;2.80;;;22.00;33.70;;;;;;4933813;29;20206;-89
2022/06/02 16:45:34;;;;;;;3.30;2.50;;;21.80;33.60;;;;;;4991142;28;20791;-89
2022/06/02 16:51:42;;;;;;;3.78;2.20;;;21.70;33.70;;;;;;4910076;29;20250;-90
2022/06/02 16:54:52;;;;;;;4.13;2.95;;;21.70;33.50;;;;;;4912205;29;20217;-89
2022/06/02 17:00:49;;;;;;;2.88;2.60;;;21.70;34.60;;;;;;4862449;29;20209;-90
2022/06/02 17:06:39;;;;;;;3.78;2.25;;;21.60;34.20;;;;;;4868423;29;20657;-90
2022/06/02 17:12:40;;;;;;;5.57;2.40;;;21.60;33.60;;;;;;5257021;23;20237;-89
2022/06/02 17:15:16;;;;;;;5.93;2.50;;;21.50;34.60;;;;;;5022744;28;20198;-89
2022/06/02 17:18:05;;;;;;;2.50;2.30;;;21.40;36.50;;;;;;5020344;28;20191;-88
2022/06/02 17:20:57;;;;;;;3.40;2.63;;;21.40;37.60;;;;;;5014161;28;20277;-87
2022/06/02 17:27:06;;;;;;;4.57;2.83;;;21.40;36.50;;;;;;5017664;28;20207;-87
2022/06/02 17:29:57;;;;;;;3.45;2.40;;;21.30;37.00;;;;;;5014464;28;20214;-88
2022/06/02 17:32:45;;;;;;;3.50;2.50;;;21.20;37.10;;;;;;4993461;28;20255;-88
2022/06/02 17:35:47;;;;;;;2.38;2.17;;;21.10;37.90;;;;;;5022920;28;20199;-89
2022/06/02 17:38:55;;;;;;;5.32;2.47;;;21.00;38.60;;;;;;5018267;28;20199;-88
2022/06/02 17:41:39;;;;;;;4.53;2.78;;;21.00;39.60;;;;;;5010329;28;20286;-87
2022/06/02 17:44:32;;;;;;;3.17;2.38;;;21.00;39.50;;;;;;4999099;28;20203;-87
2022/06/02 17:47:45;;;;;;;5.15;2.28;;;21.00;39.30;;;;;;4993225;28;20192;-89
2022/06/02 17:50:39;;;;;;;3.80;2.80;;;20.90;39.00;;;;;;4941972;29;20244;-87
2022/06/02 17:56:49;;;;;;;5.68;2.63;;;20.90;39.20;;;;;;4948167;29;20273;-89
2022/06/02 17:59:51;;;;;;;6.95;2.70;;;20.80;39.60;;;;;;4937647;29;20201;-87
2022/06/02 18:02:39;;;;;;;3.00;2.42;;;20.80;40.60;;;;;;4931136;29;20616;-87
2022/06/02 18:05:32;;;;;;;2.63;2.38;;;20.70;39.90;;;;;;4935979;29;20198;-87
2022/06/02 18:08:15;;;;;;;2.58;2.22;;;20.60;41.50;;;;;;4931622;29;20269;-86
2022/06/02 18:11:17;;;;;;;3.38;2.60;;;20.60;40.90;;;;;;4939897;29;20658;-87
2022/06/02 18:14:24;;;;;;;4.93;2.55;;;20.60;41.70;;;;;;4937953;29;20297;-87
2022/06/02 18:17:46;;;;;;;2.70;2.50;;;20.60;41.30;;;;;;4914946;29;20231;-87
2022/06/02 18:20:46;;;;;;;4.03;2.50;;;20.60;42.30;;;;;;4915265;29;20298;-87
2022/06/02 18:24:01;;;;;;;4.68;2.55;;;20.50;42.00;;;;;;4923371;29;20222;-88
2022/06/02 18:27:17;;;;;;;3.75;2.42;;;20.40;42.00;;;;;;4919631;29;20207;-87
2022/06/02 18:30:16;;;;;;;3.45;2.60;;;20.40;42.80;;;;;;4829086;29;20240;-87
2022/06/02 18:33:23;;;;;;;3.28;2.70;;;20.20;43.70;;;;;;4831592;29;20243;-88
2022/06/02 18:36:36;;;;;;;2.78;2.47;;;20.10;48.20;;;;;;4892208;29;20207;-87
2022/06/02 18:39:39;;;;;;;3.75;3.00;;;20.00;48.90;;;;;;4893986;29;20230;-88
2022/06/02 18:42:57;;;;;;;3.85;2.50;;;20.00;49.30;;;;;;4867926;29;20279;-88
2022/06/02 18:49:33;;;;;;;3.08;2.60;;;19.90;50.60;;;;;;4905723;29;20210;-88
2022/06/02 18:52:41;;;;;;;4.50;3.15;;;19.80;50.80;;;;;;4901825;29;20617;-88
2022/06/02 18:55:56;;;;;;;4.68;2.80;;;19.80;52.60;;;;;;4898318;29;20207;-87
2022/06/02 18:59:20;;;;;;;4.75;2.78;;;19.60;54.60;;;;;;4863012;29;20208;-88
2022/06/02 19:02:39;;;;;;;3.08;2.78;;;19.60;54.40;;;;;;4845660;29;20281;-88
2022/06/02 19:05:51;;;;;;;3.95;2.55;;;19.60;54.60;;;;;;4777825;30;20212;-88
2022/06/02 19:15:41;;;;;;;9.65;3.00;;;19.50;55.40;;;;;;4905102;29;20214;-88
2022/06/02 19:18:50;;;;;;;3.70;3.15;;;19.50;56.60;;;;;;4907977;29;20263;-88
2022/06/02 19:21:59;;;;;;;4.65;3.33;;;19.40;61.80;;;;;;4889762;29;20214;-88
2022/06/02 19:25:04;;;;;;;4.60;3.30;;;19.20;66.30;;;;;;4904424;29;20199;-88
2022/06/02 19:28:05;;;;;;;3.85;3.45;;;19.00;72.30;;;;;;4905011;29;20213;-90
2022/06/02 19:31:14;;;;;;;4.78;3.40;;;18.90;75.60;;;;;;4896460;29;20278;-87
2022/06/02 19:34:37;;;;;;;;;;;;;;;;;;;;;
2022/06/02 19:44:13;;;;;;;4.85;3.92;;;18.40;79.70;;;;;;4926937;29;20207;-87
2022/06/02 19:57:23;;;;;;;7.00;4.05;;;18.10;83.60;;;;;;4883463;29;20211;-87
2022/06/02 20:03:54;;;;;;;4.80;3.83;;;18.00;85.00;;;;;;4867635;29;20260;-87
2022/06/02 20:24:09;;;;;;;;;;;;;;;;;;;;;
2022/06/02 20:33:51;;;;;;;5.88;4.50;;;17.30;91.20;;;;;;4882943;29;20249;-86
2022/06/02 20:40:27;;;;;;;6.85;4.65;;;17.20;92.00;;;;;;4897188;29;20185;-86
2022/06/02 20:43:35;;;;;;;5.75;4.88;;;17.30;92.00;;;;;;4999115;28;20208;-86
2022/06/02 20:57:11;;;;;;;5.13;4.63;;;16.90;92.20;;;;;;5027214;28;20194;-86
2022/06/02 21:06:39;;;;;;;7.97;5.60;;;16.70;92.70;;;;;;4865199;29;20267;-86
2022/06/02 21:10:13;;;;;;;6.20;5.05;;;16.70;92.80;;;;;;4854972;29;20210;-86
2022/06/02 21:29:35;;;;;;;10.00;5.70;;;16.40;93.30;;;;;;4900229;29;20236;-86
2022/06/02 21:35:51;;;;;;;6.03;5.30;;;16.40;93.70;;;;;;4953950;29;20249;-87
